Hudson, South Dakota
Current Conditions -  °F | °C
As of 4:15 PM on Thursday 27 Nov 2014 (Local Time) from KORC Reporting Station
Scattered Clouds Scattered Clouds  
Wind Chill:   Ceiling: Unl
Heat Index: 12°   Visibility: 10mi
Dew Point:   Wind: 9mph
Humidity: 67%   Direction: 120°ESE
Pressure: 30.29"   Gusts: NA
Location:  43.13°N, 96.45°W
Report Text: KORC 272215Z AUTO 12008KT 10SM SCT110 M11/M16 A3029 RMK AO2
Loading
Personal Weather Stations






























Interactive Weather Map New forecast layout! Learn more

10-Day Weather Forecast

Advertisements
Track Severe Weather on mobile